Time;durP1;ratioP1;P1;durP2;ratioP2;P2;SDS_P1;SDS_P2;PMS_P1;PMS_P2;Temp;Humidity;BMP_temperature;BMP_pressure;BME280_temperature;BME280_humidity;BME280_pressure;Samples;Min_cycle;Max_cycle;Signal;HPM_P1;HPM_P2
2023/03/06 00:00:00;;;;;;;8.65;4.75;;;;;;;1.80;100.00;100401.28;6104213;23;20024;-76
2023/03/06 00:02:27;;;;;;;5.78;5.28;;;;;;;1.91;100.00;100419.19;6103846;23;20237;-75
2023/03/06 00:04:53;;;;;;;8.02;3.88;;;;;;;1.82;100.00;100419.38;6098854;23;20119;-75
2023/03/06 00:07:19;;;;;;;4.07;3.88;;;;;;;1.99;100.00;100451.78;6088986;23;20038;-77
2023/03/06 00:09:46;;;;;;;4.57;4.18;;;;;;;1.95;100.00;100426.84;6077551;23;20331;-77
2023/03/06 00:12:12;;;;;;;4.68;3.60;;;;;;;1.83;100.00;100408.16;6107145;23;20024;-76
2023/03/06 00:14:38;;;;;;;4.25;3.95;;;;;;;1.46;100.00;100354.56;6077475;23;20074;-74
2023/03/06 00:17:05;;;;;;;3.78;3.58;;;;;;;1.81;100.00;100407.34;6106997;23;20028;-74
2023/03/06 00:19:31;;;;;;;5.43;4.93;;;;;;;1.33;100.00;100315.22;6076318;23;20026;-76
2023/03/06 00:21:58;;;;;;;3.60;3.42;;;;;;;1.54;100.00;100350.97;6108527;23;20021;-74
2023/03/06 00:24:24;;;;;;;4.93;4.47;;;;;;;1.11;100.00;100287.19;6080599;23;20029;-75
2023/03/06 00:26:50;;;;;;;4.95;4.55;;;;;;;1.52;100.00;100344.94;6086449;23;20033;-77
2023/03/06 00:29:17;;;;;;;6.35;4.93;;;;;;;0.93;100.00;100251.41;6055150;23;20244;-75
2023/03/06 00:31:46;;;;;;;3.80;3.60;;;;;;;2.03;100.00;100418.94;6113536;23;20051;-74
2023/03/06 00:34:13;;;;;;;4.20;4.00;;;;;;;1.48;100.00;100320.03;6110400;23;20285;-75
2023/03/06 00:36:40;;;;;;;4.30;4.10;;;;;;;1.97;100.00;100394.03;6089083;23;20022;-75
2023/03/06 00:39:07;;;;;;;4.60;4.30;;;;;;;2.02;100.00;100393.91;6084374;23;20244;-77
2023/03/06 00:41:33;;;;;;;5.47;3.83;;;;;;;2.05;100.00;100398.19;6090156;23;20033;-76
2023/03/06 00:43:59;;;;;;;3.40;3.28;;;;;;;1.50;100.00;100300.16;6108698;23;20556;-75
2023/03/06 00:46:26;;;;;;;6.40;3.75;;;;;;;1.74;100.00;100329.81;6090955;23;20029;-76
2023/03/06 00:48:52;;;;;;;3.47;3.28;;;;;;;1.88;100.00;100355.41;6111628;23;20031;-75
2023/03/06 00:51:20;;;;;;;3.78;3.58;;;;;;;1.66;100.00;100321.38;6111987;23;20127;-75
2023/03/06 00:53:47;;;;;;;4.72;4.43;;;;;;;1.45;100.00;100283.91;6082433;23;20021;-74
2023/03/06 00:56:13;;;;;;;3.78;3.50;;;;;;;1.95;100.00;100369.91;6109025;23;20053;-75
2023/03/06 00:58:40;;;;;;;4.63;4.22;;;;;;;1.94;100.00;100352.69;6082356;23;20058;-78
2023/03/06 01:01:06;;;;;;;3.50;3.30;;;;;;;1.55;100.00;100298.34;6106464;23;20017;-74
2023/03/06 01:03:33;;;;;;;4.57;4.28;;;;;;;1.39;100.00;100277.13;6111031;23;20087;-75
2023/03/06 01:05:59;;;;;;;5.65;5.20;;;;;;;1.41;100.00;100269.34;6051974;23;20293;-75
2023/03/06 01:08:26;;;;;;;5.22;4.78;;;;;;;1.68;100.00;100332.53;6110194;23;20170;-75
2023/03/06 01:10:55;;;;;;;5.20;3.97;;;;;;;1.86;100.00;100364.94;6112052;23;20029;-75
2023/03/06 01:13:21;;;;;;;4.75;3.80;;;;;;;0.87;100.00;100205.03;6084623;23;20068;-76
2023/03/06 01:15:48;;;;;;;5.63;4.30;;;;;;;1.78;100.00;100366.84;6085897;23;20232;-76
2023/03/06 01:18:14;;;;;;;5.38;4.20;;;;;;;1.68;100.00;100336.88;6106598;23;21665;-74
2023/03/06 01:20:40;;;;;;;4.00;3.80;;;;;;;1.51;100.00;100311.38;6093548;23;20036;-74
2023/03/06 01:23:07;;;;;;;4.13;3.92;;;;;;;1.50;100.00;100304.50;6057706;23;20046;-75
2023/03/06 01:25:33;;;;;;;8.63;4.07;;;;;;;1.62;100.00;100318.91;6105962;23;20036;-74
2023/03/06 01:28:00;;;;;;;4.80;4.40;;;;;;;1.85;100.00;100347.72;6107326;23;20100;-75
2023/03/06 01:30:26;;;;;;;13.10;5.43;;;;;;;1.40;100.00;100280.56;6087331;23;20024;-75
2023/03/06 01:32:52;;;;;;;4.60;4.18;;;;;;;1.74;100.00;100309.13;6082619;23;20025;-76
2023/03/06 01:35:19;;;;;;;5.22;4.82;;;;;;;1.10;100.00;100214.84;6108982;23;20017;-74
2023/03/06 01:37:45;;;;;;;5.70;5.20;;;;;;;1.40;100.00;100244.38;6107881;23;20162;-76
2023/03/06 01:40:12;;;;;;;5.28;4.88;;;;;;;1.14;100.00;100240.63;6114269;23;20361;-74
2023/03/06 01:42:39;;;;;;;4.03;3.83;;;;;;;1.89;100.00;100335.56;6083404;23;20021;-76
2023/03/06 01:45:25;;;;;;;4.40;4.00;;;;;;;1.93;100.00;100330.28;6084391;23;20036;-75
2023/03/06 01:47:52;;;;;;;5.65;4.40;;;;;;;1.68;100.00;100286.00;6086909;23;20663;-77
2023/03/06 01:50:18;;;;;;;4.80;4.18;;;;;;;1.16;100.00;100199.22;6113638;23;20506;-77
2023/03/06 01:52:51;;;;;;;4.35;4.03;;;;;;;0.72;100.00;100128.69;6107780;23;20467;-75
2023/03/06 01:55:21;;;;;;;11.15;4.60;;;;;;;1.19;100.00;100202.59;6071502;23;20037;-77
2023/03/06 01:57:56;;;;;;;4.32;4.03;;;;;;;1.78;100.00;100304.75;6110006;23;20013;-76
2023/03/06 02:00:26;;;;;;;3.75;3.53;;;;;;;1.88;100.00;100314.00;6085852;23;20044;-76
2023/03/06 02:02:56;;;;;;;5.20;4.80;;;;;;;1.66;100.00;100284.31;6106332;23;20021;-74
2023/03/06 02:05:23;;;;;;;4.18;3.97;;;;;;;1.57;100.00;100264.69;6110143;23;20086;-76
2023/03/06 02:07:50;;;;;;;7.20;4.40;;;;;;;1.64;100.00;100286.09;6081303;23;20105;-75
2023/03/06 02:10:18;;;;;;;5.47;5.00;;;;;;;1.41;100.00;100243.50;6108649;23;20025;-75
2023/03/06 02:12:48;;;;;;;4.60;4.15;;;;;;;1.78;100.00;100299.56;6110399;23;20036;-75
2023/03/06 02:15:17;;;;;;;4.65;4.45;;;;;;;1.85;100.00;100302.91;6089760;23;20018;-75
2023/03/06 02:17:45;;;;;;;4.88;4.53;;;;;;;1.37;100.00;100234.94;6110958;23;20157;-76
2023/03/06 02:20:21;;;;;;;4.68;4.38;;;;;;;1.84;100.00;100302.03;6051685;23;20030;-76
2023/03/06 02:22:56;;;;;;;4.50;4.10;;;;;;;1.86;100.00;100292.47;6075397;23;20129;-76
2023/03/06 02:25:38;;;;;;;5.85;4.18;;;;;;;1.89;100.00;100289.84;6104993;23;20115;-74
2023/03/06 02:28:08;;;;;;;5.65;4.97;;;;;;;1.79;100.00;100280.59;6090028;23;20244;-75
2023/03/06 02:30:35;;;;;;;4.93;4.63;;;;;;;0.89;100.00;100128.34;6104195;23;20252;-74
2023/03/06 02:33:02;;;;;;;4.85;4.55;;;;;;;1.87;100.00;100286.44;6110437;23;20041;-74
2023/03/06 02:35:31;;;;;;;7.68;5.85;;;;;;;1.45;100.00;100234.78;6078569;23;20020;-75
2023/03/06 02:38:03;;;;;;;5.38;5.05;;;;;;;1.38;100.00;100223.75;6075385;23;20050;-76
2023/03/06 02:40:30;;;;;;;8.45;5.03;;;;;;;1.29;100.00;100197.25;6080019;23;20041;-74
2023/03/06 02:42:57;;;;;;;4.55;4.35;;;;;;;1.82;100.00;100280.50;6081844;23;20043;-75
2023/03/06 02:45:37;;;;;;;4.38;4.15;;;;;;;1.88;100.00;100279.53;6081408;23;20030;-76
2023/03/06 02:48:04;;;;;;;5.10;4.72;;;;;;;1.73;100.00;100260.88;6106106;23;20281;-76
2023/03/06 02:50:31;;;;;;;6.13;5.45;;;;;;;1.36;100.00;100215.16;6108647;23;20029;-75
2023/03/06 02:52:57;;;;;;;4.85;4.55;;;;;;;1.51;100.00;100234.66;6080612;23;20085;-74
2023/03/06 02:55:24;;;;;;;5.45;5.05;;;;;;;1.65;100.00;100247.28;6107258;23;20448;-76
2023/03/06 02:57:51;;;;;;;5.22;4.78;;;;;;;1.87;100.00;100278.69;6082384;23;20017;-75
2023/03/06 03:00:18;;;;;;;5.20;4.82;;;;;;;1.20;100.00;100162.09;6109987;23;20354;-76
2023/03/06 03:02:44;;;;;;;4.80;4.50;;;;;;;1.81;100.00;100259.88;6108732;23;20047;-73
2023/03/06 03:05:11;;;;;;;5.40;4.82;;;;;;;1.90;100.00;100272.56;6081210;23;20014;-76
2023/03/06 03:07:37;;;;;;;4.63;4.32;;;;;;;1.59;100.00;100224.13;6106988;23;20553;-77
2023/03/06 03:10:04;;;;;;;6.07;5.15;;;;;;;1.80;100.00;100243.47;6093613;23;20108;-74
2023/03/06 03:12:31;;;;;;;6.32;4.20;;;;;;;1.64;100.00;100232.63;6101061;23;20082;-75
2023/03/06 03:14:57;;;;;;;5.15;4.85;;;;;;;1.94;100.00;100269.03;6082006;23;20029;-74
2023/03/06 03:17:24;;;;;;;5.07;4.65;;;;;;;1.18;100.00;100158.69;6055617;23;20089;-76
2023/03/06 03:19:50;;;;;;;6.35;5.38;;;;;;;1.87;100.00;100270.91;6106920;23;20657;-76
2023/03/06 03:22:17;;;;;;;5.00;4.70;;;;;;;1.84;100.00;100276.16;6079558;23;20700;-74
2023/03/06 03:24:44;;;;;;;7.55;6.43;;;;;;;1.69;100.00;100245.47;6108120;23;20029;-77
2023/03/06 03:27:11;;;;;;;5.40;4.75;;;;;;;1.55;100.00;100227.69;6080610;23;20056;-75
2023/03/06 03:29:37;;;;;;;6.25;4.80;;;;;;;1.86;100.00;100268.34;6078371;23;20097;-76
2023/03/06 03:32:04;;;;;;;5.00;4.70;;;;;;;0.51;100.00;100037.03;6082553;23;20491;-74
2023/03/06 03:34:30;;;;;;;6.70;6.07;;;;;;;1.50;100.00;100201.91;6103293;23;20553;-75
2023/03/06 03:36:57;;;;;;;4.95;4.65;;;;;;;1.61;100.00;100209.44;6091445;23;20468;-74
2023/03/06 03:39:23;;;;;;;6.13;4.75;;;;;;;1.76;100.00;100231.50;6108110;23;20093;-75
2023/03/06 03:41:50;;;;;;;5.20;4.88;;;;;;;1.89;100.00;100258.78;6106443;23;20058;-77
2023/03/06 03:44:16;;;;;;;5.35;4.95;;;;;;;1.82;100.00;100238.28;6078751;23;20260;-75
2023/03/06 03:46:42;;;;;;;4.07;3.88;;;;;;;1.76;100.00;100240.13;6109548;23;20092;-76
2023/03/06 03:49:09;;;;;;;4.10;3.90;;;;;;;1.84;100.00;100231.31;6084586;23;20033;-77
2023/03/06 03:51:36;;;;;;;7.22;5.28;;;;;;;1.78;100.00;100217.66;6110636;23;20677;-76
2023/03/06 03:54:04;;;;;;;5.07;4.68;;;;;;;1.94;100.00;100248.31;6108916;23;20092;-74
2023/03/06 03:56:31;;;;;;;4.60;4.30;;;;;;;1.08;100.00;100093.44;6109537;23;20727;-76
2023/03/06 03:58:58;;;;;;;7.05;4.55;;;;;;;1.96;100.00;100237.03;6082169;23;20021;-77
2023/03/06 04:01:25;;;;;;;4.32;4.03;;;;;;;1.84;100.00;100220.97;6105857;23;20471;-76
2023/03/06 04:03:51;;;;;;;5.20;4.80;;;;;;;1.62;100.00;100174.91;6101218;23;20040;-76
2023/03/06 04:06:18;;;;;;;4.03;3.63;;;;;;;1.44;100.00;100139.16;6065443;23;20022;-75
2023/03/06 04:08:44;;;;;;;4.88;4.28;;;;;;;1.92;100.00;100217.31;6104812;23;20311;-76
2023/03/06 04:11:11;;;;;;;4.43;4.18;;;;;;;1.61;100.00;100167.22;6077870;23;20225;-75
2023/03/06 04:13:37;;;;;;;5.57;5.10;;;;;;;1.56;100.00;100149.19;6076649;23;20055;-74
2023/03/06 04:16:04;;;;;;;6.32;5.57;;;;;;;1.92;100.00;100206.94;6108555;23;20534;-76
2023/03/06 04:18:31;;;;;;;5.50;5.07;;;;;;;1.92;100.00;100206.09;6077906;23;20029;-74
2023/03/06 04:20:57;;;;;;;5.32;4.63;;;;;;;1.50;100.00;100147.59;6105215;23;20025;-74
2023/03/06 04:23:24;;;;;;;5.20;4.07;;;;;;;1.30;100.00;100098.13;6109477;23;20219;-76
2023/03/06 04:25:50;;;;;;;5.68;5.22;;;;;;;1.51;100.00;100128.63;6088139;23;20022;-78
2023/03/06 04:28:17;;;;;;;5.53;5.13;;;;;;;1.54;100.00;100141.50;6110879;23;20041;-75
2023/03/06 04:30:43;;;;;;;5.72;5.32;;;;;;;1.73;100.00;100169.50;6076704;23;20185;-75
2023/03/06 04:33:10;;;;;;;4.75;4.35;;;;;;;1.73;100.00;100169.50;6106614;23;20056;-76
2023/03/06 04:35:36;;;;;;;5.97;5.57;;;;;;;1.87;100.00;100189.88;6060798;23;20032;-76
2023/03/06 04:38:04;;;;;;;6.30;5.72;;;;;;;1.88;100.00;100186.38;6106942;23;20026;-76
2023/03/06 04:40:32;;;;;;;5.22;4.82;;;;;;;1.90;100.00;100185.44;6094444;23;20017;-76
2023/03/06 04:43:00;;;;;;;9.25;5.43;;;;;;;1.91;100.00;100181.97;6104486;23;20025;-75
2023/03/06 04:45:28;;;;;;;5.05;4.65;;;;;;;1.93;100.00;100182.78;6092383;23;20013;-76
2023/03/06 04:47:55;;;;;;;4.45;4.22;;;;;;;1.82;100.00;100166.66;6084003;23;20029;-76
2023/03/06 04:50:23;;;;;;;5.70;5.30;;;;;;;2.00;100.00;100186.06;6111553;23;20079;-75
2023/03/06 04:52:50;;;;;;;5.55;5.05;;;;;;;1.74;100.00;100153.06;6080328;23;20029;-75
2023/03/06 04:55:17;;;;;;;5.00;4.47;;;;;;;1.35;100.00;100099.72;6110587;23;20084;-76
2023/03/06 04:57:45;;;;;;;5.88;5.20;;;;;;;1.43;100.00;100091.78;6103423;23;20032;-77
2023/03/06 05:00:21;;;;;;;6.10;5.63;;;;;;;1.42;100.00;100090.06;6080676;23;20058;-76
2023/03/06 05:02:48;;;;;;;6.70;6.05;;;;;;;1.94;100.00;100178.47;6100746;23;20029;-76
2023/03/06 05:05:16;;;;;;;6.38;5.78;;;;;;;1.15;100.00;100042.47;6085514;23;20072;-77
2023/03/06 05:07:43;;;;;;;5.75;5.30;;;;;;;1.32;100.00;100067.91;6107396;23;20030;-74
2023/03/06 05:10:12;;;;;;;8.50;6.78;;;;;;;1.80;100.00;100189.13;6082491;23;20042;-75
2023/03/06 05:12:39;;;;;;;7.90;4.50;;;;;;;0.38;100.00;99934.06;6110844;23;20021;-75
2023/03/06 05:15:06;;;;;;;11.57;5.65;;;;;;;1.93;100.00;100180.19;6086227;23;20136;-76
2023/03/06 05:17:33;;;;;;;7.95;7.28;;;;;;;1.88;100.00;100176.88;6082673;23;20537;-75
2023/03/06 05:19:59;;;;;;;6.45;5.47;;;;;;;1.75;100.00;100149.63;6109009;23;20025;-76
2023/03/06 05:22:28;;;;;;;10.82;4.55;;;;;;;1.76;100.00;100146.13;6056640;23;20030;-76
2023/03/06 05:24:54;;;;;;;5.38;4.97;;;;;;;1.52;100.00;100099.28;6103186;23;20506;-75
2023/03/06 05:27:21;;;;;;;5.35;4.85;;;;;;;1.14;100.00;100046.81;6082585;23;20053;-75
2023/03/06 05:29:47;;;;;;;7.30;6.28;;;;;;;1.88;100.00;100178.59;6085077;23;21153;-75
2023/03/06 05:32:15;;;;;;;5.60;5.00;;;;;;;1.37;100.00;100089.34;6108073;23;20013;-75
2023/03/06 05:34:42;;;;;;;17.52;6.13;;;;;;;1.87;100.00;100177.75;6113337;23;20029;-75
2023/03/06 05:37:08;;;;;;;6.25;5.65;;;;;;;1.88;100.00;100187.22;6084010;23;20014;-75
2023/03/06 05:39:34;;;;;;;12.70;11.43;;;;;;;1.11;100.00;100057.19;6022894;23;20033;-75
2023/03/06 05:42:01;;;;;;;4.65;4.45;;;;;;;1.42;100.00;100105.56;6079529;23;20041;-74
2023/03/06 05:44:32;;;;;;;6.32;5.88;;;;;;;1.87;100.00;100180.34;6109604;23;20029;-74
2023/03/06 05:46:58;;;;;;;6.05;5.65;;;;;;;1.83;100.00;100183.91;6112428;23;20021;-76
2023/03/06 05:49:26;;;;;;;7.07;6.45;;;;;;;1.86;100.00;100185.56;6086155;23;20484;-77
2023/03/06 05:51:53;;;;;;;7.53;6.85;;;;;;;1.77;100.00;100160.78;6108950;23;20021;-75
2023/03/06 05:54:20;;;;;;;11.43;6.50;;;;;;;1.71;100.00;100155.75;6085415;23;20097;-75
2023/03/06 05:56:46;;;;;;;5.32;4.88;;;;;;;0.96;100.00;100031.72;6111030;23;20089;-77
2023/03/06 05:59:12;;;;;;;8.65;4.65;;;;;;;1.70;100.00;100148.88;6110123;23;20017;-76
2023/03/06 06:01:39;;;;;;;6.38;5.82;;;;;;;1.88;100.00;100176.88;6089632;23;20032;-75
2023/03/06 06:04:05;;;;;;;5.90;5.28;;;;;;;1.65;100.00;100132.63;6108685;23;20552;-76
2023/03/06 06:06:31;;;;;;;5.07;4.68;;;;;;;1.82;100.00;100155.47;6091628;23;20163;-74
2023/03/06 06:08:58;;;;;;;5.07;4.30;;;;;;;1.94;100.00;100181.03;6107014;23;20017;-75
2023/03/06 06:11:24;;;;;;;6.88;6.32;;;;;;;1.62;100.00;100125.78;6090521;23;20026;-73
2023/03/06 06:13:51;;;;;;;12.00;6.90;;;;;;;1.70;100.00;100128.19;6108991;23;20358;-74
2023/03/06 06:16:18;;;;;;;6.18;5.68;;;;;;;1.82;100.00;100140.78;6080943;23;20022;-79
2023/03/06 06:18:47;;;;;;;9.13;5.90;;;;;;;1.69;100.00;100139.41;6107399;23;20098;-74
2023/03/06 06:21:13;;;;;;;5.20;4.85;;;;;;;1.31;100.00;100072.22;6052829;23;20024;-75
2023/03/06 06:23:40;;;;;;;5.18;4.72;;;;;;;1.48;100.00;100091.66;6108112;23;20048;-76
2023/03/06 06:26:08;;;;;;;6.05;5.55;;;;;;;1.48;100.00;100095.06;6107667;23;20028;-73
2023/03/06 06:28:35;;;;;;;5.45;4.65;;;;;;;1.59;100.00;100112.94;6081829;23;20048;-72
2023/03/06 06:31:09;;;;;;;6.80;5.10;;;;;;;1.58;100.00;100114.69;6108509;23;20013;-72
2023/03/06 06:33:35;;;;;;;6.60;5.43;;;;;;;1.50;100.00;100106.22;6078894;23;20666;-72
2023/03/06 06:36:02;;;;;;;4.25;3.95;;;;;;;1.79;100.00;100153.81;6082543;23;20561;-74
2023/03/06 06:38:28;;;;;;;5.32;4.95;;;;;;;1.42;100.00;100073.69;6081705;23;20067;-73
2023/03/06 06:40:55;;;;;;;4.57;4.28;;;;;;;1.46;100.00;100098.59;6108807;23;20151;-75
2023/03/06 06:43:41;;;;;;;5.53;4.95;;;;;;;1.94;100.00;100168.94;6079726;23;20492;-74
2023/03/06 06:46:07;;;;;;;6.00;5.22;;;;;;;0.94;100.00;100003.34;6104364;23;20033;-72
2023/03/06 06:48:54;;;;;;;8.38;5.45;;;;;;;1.03;100.00;100019.53;6090476;23;20020;-75
2023/03/06 06:51:21;;;;;;;9.07;4.78;;;;;;;1.41;100.00;100082.38;6102778;23;20238;-74
2023/03/06 06:53:52;;;;;;;5.72;5.13;;;;;;;1.77;100.00;100148.69;6078375;23;20034;-73
2023/03/06 06:56:18;;;;;;;5.13;4.72;;;;;;;1.13;100.00;100059.75;6099280;23;20017;-75
2023/03/06 06:58:44;;;;;;;5.28;4.47;;;;;;;0.79;100.00;99985.63;6109090;23;20029;-73
2023/03/06 07:01:12;;;;;;;4.97;4.55;;;;;;;1.67;100.00;100151.53;6076145;23;20279;-74
2023/03/06 07:03:39;;;;;;;4.63;4.30;;;;;;;1.79;100.00;100172.78;6082440;23;20506;-72
2023/03/06 07:06:06;;;;;;;6.78;6.00;;;;;;;1.64;100.00;100157.63;6080033;23;20148;-74
2023/03/06 07:08:33;;;;;;;10.60;6.47;;;;;;;1.27;100.00;100080.09;6103674;23;20130;-72
2023/03/06 07:11:08;;;;;;;7.57;5.35;;;;;;;1.80;100.00;100171.03;6108304;23;20086;-72
2023/03/06 07:13:35;;;;;;;6.15;5.75;;;;;;;1.19;100.00;100072.53;6106353;23;20016;-74
2023/03/06 07:16:01;;;;;;;5.25;4.88;;;;;;;1.98;100.00;100178.38;6082513;23;20005;-72
2023/03/06 07:18:28;;;;;;;5.15;4.75;;;;;;;1.61;100.00;100116.31;6110420;23;20532;-73
2023/03/06 07:20:57;;;;;;;4.78;4.47;;;;;;;1.87;100.00;100132.94;6103428;23;20029;-74
2023/03/06 07:23:26;;;;;;;4.35;4.13;;;;;;;1.57;100.00;100071.59;6090348;23;20093;-72
2023/03/06 07:25:54;;;;;;;6.00;5.53;;;;;;;2.25;100.00;100178.53;6105817;23;20545;-72
2023/03/06 07:28:21;;;;;;;6.30;5.78;;;;;;;2.21;100.00;100178.66;6084725;23;20020;-75
2023/03/06 07:30:47;;;;;;;5.68;5.10;;;;;;;1.79;100.00;100109.84;6074270;23;20029;-72
2023/03/06 07:33:14;;;;;;;5.72;5.38;;;;;;;2.01;100.00;100133.44;6105958;23;20037;-74
2023/03/06 07:35:41;;;;;;;6.30;5.20;;;;;;;1.32;100.00;100011.91;6100240;23;20025;-73
2023/03/06 07:38:09;;;;;;;7.88;5.10;;;;;;;2.40;100.00;100166.91;6108741;23;20022;-73
2023/03/06 07:40:37;;;;;;;4.53;4.22;;;;;;;2.20;100.00;100151.91;6095013;23;20084;-72
2023/03/06 07:43:04;;;;;;;4.45;4.15;;;;;;;2.39;100.00;100160.03;6106154;23;20036;-73
2023/03/06 07:45:45;;;;;;;7.63;6.10;;;;;;;1.62;100.00;100044.75;6073820;23;20033;-72
2023/03/06 07:48:13;;;;;;;8.57;5.50;;;;;;;2.52;100.00;100165.72;6082213;23;20656;-73
2023/03/06 07:50:40;;;;;;;5.25;4.28;;;;;;;2.12;100.00;100091.72;6080591;23;20044;-73
2023/03/06 07:53:07;;;;;;;7.05;6.50;;;;;;;2.27;100.00;100142.25;6108967;23;20038;-72
2023/03/06 07:55:39;;;;;;;5.78;5.22;;;;;;;2.31;100.00;100152.47;6080874;23;20029;-72
2023/03/06 07:58:05;;;;;;;6.32;5.75;;;;;;;1.87;100.00;100074.28;6107365;23;20018;-73
2023/03/06 08:00:32;;;;;;;6.82;6.22;;;;;;;2.73;100.00;100170.31;6090506;23;20040;-74
2023/03/06 08:02:58;;;;;;;5.57;4.78;;;;;;;2.69;100.00;100170.44;6107987;23;20022;-74
2023/03/06 08:05:25;;;;;;;14.27;7.70;;;;;;;2.67;100.00;100162.72;6094252;23;20463;-75
2023/03/06 08:07:51;;;;;;;8.98;7.00;;;;;;;2.32;100.00;100096.34;6103716;23;20043;-75
2023/03/06 08:10:17;;;;;;;6.63;5.93;;;;;;;1.35;100.00;99942.00;6055729;23;20028;-73
2023/03/06 08:12:44;;;;;;;5.53;5.00;;;;;;;2.17;100.00;100088.13;6078398;23;20041;-73
2023/03/06 08:15:11;;;;;;;5.82;5.32;;;;;;;2.28;100.00;100097.31;6077896;23;20113;-73
2023/03/06 08:17:38;;;;;;;5.78;5.10;;;;;;;2.32;100.00;100109.31;6107391;23;20021;-74
2023/03/06 08:20:09;;;;;;;7.72;6.38;;;;;;;2.32;100.00;100084.25;6108345;23;20040;-73
2023/03/06 08:22:35;;;;;;;6.72;5.75;;;;;;;2.08;100.00;100074.56;6105214;23;20160;-74
2023/03/06 08:25:04;;;;;;;8.57;6.45;;;;;;;2.82;100.00;100173.53;6112444;23;20038;-74
2023/03/06 08:27:32;;;;;;;12.32;6.97;;;;;;;3.07;100.00;100171.09;6053515;23;20033;-71
2023/03/06 08:29:59;;;;;;;7.90;7.18;;;;;;;2.76;100.00;100084.69;6105479;23;20033;-72
2023/03/06 08:32:26;;;;;;;11.75;7.40;;;;;;;3.42;100.00;100164.81;6050561;23;20233;-75
2023/03/06 08:34:53;;;;;;;9.20;6.95;;;;;;;3.55;100.00;100154.91;6107171;23;20541;-72
2023/03/06 08:37:19;;;;;;;8.95;5.45;;;;;;;3.64;100.00;100153.75;6107655;23;20236;-74
2023/03/06 08:39:46;;;;;;;7.72;6.53;;;;;;;3.59;100.00;100140.94;6079161;23;20233;-74
2023/03/06 08:42:13;;;;;;;8.35;7.15;;;;;;;2.82;100.00;100042.22;6106565;23;20091;-72
2023/03/06 08:44:39;;;;;;;7.97;6.72;;;;;;;3.26;100.00;100140.25;6078743;23;20158;-73
2023/03/06 08:47:06;;;;;;;11.20;7.32;;;;;;;3.32;100.00;100145.25;6111126;23;20053;-74
2023/03/06 08:49:32;;;;;;;9.55;8.38;;;;;;;3.06;100.00;100096.78;6104946;23;20547;-71
2023/03/06 08:51:59;;;;;;;14.98;7.88;;;;;;;2.76;100.00;100039.81;6081387;23;20033;-75
2023/03/06 08:54:26;;;;;;;9.65;8.25;;;;;;;3.09;100.00;100107.91;6079171;23;20026;-73
2023/03/06 08:56:53;;;;;;;5.80;5.30;;;;;;;3.15;100.00;100089.56;6070239;23;20032;-73
2023/03/06 08:59:19;;;;;;;5.80;5.38;;;;;;;3.79;100.00;100145.47;6081346;23;20017;-74
2023/03/06 09:01:45;;;;;;;11.65;7.20;;;;;;;3.27;100.00;100116.88;6073465;23;20022;-74
2023/03/06 09:04:12;;;;;;;12.40;6.90;;;;;;;3.33;100.00;100136.59;6080811;23;20037;-75
2023/03/06 09:06:41;;;;;;;12.25;6.15;;;;;;;3.12;100.00;100102.63;6107374;23;20468;-73
2023/03/06 09:09:07;;;;;;;7.97;6.88;;;;;;;3.12;100.00;100068.06;6081362;23;20032;-75
2023/03/06 09:11:34;;;;;;;10.18;9.20;;;;;;;3.71;100.00;100156.09;6105979;23;20487;-73
2023/03/06 09:14:01;;;;;;;12.15;7.47;;;;;;;3.88;100.00;100149.50;6080206;23;20030;-72
2023/03/06 09:16:27;;;;;;;7.90;7.05;;;;;;;2.77;100.00;99966.38;6108773;23;20464;-71
2023/03/06 09:18:54;;;;;;;11.50;8.48;;;;;;;3.89;100.00;100146.00;6083184;23;20493;-73
2023/03/06 09:21:21;;;;;;;11.68;7.95;;;;;;;3.88;100.00;100136.53;6080375;23;20017;-73
2023/03/06 09:23:48;;;;;;;12.15;10.13;;;;;;;3.85;100.00;100105.47;6111346;23;20036;-75
2023/03/06 09:26:14;;;;;;;9.55;6.63;;;;;;;4.03;100.00;100137.75;6107745;23;20059;-73
2023/03/06 09:28:41;;;;;;;6.28;5.85;;;;;;;3.95;100.00;100115.50;6079975;23;20067;-74
2023/03/06 09:31:14;;;;;;;8.45;7.53;;;;;;;3.82;100.00;100123.75;6055917;23;20157;-73
2023/03/06 09:33:41;;;;;;;7.30;6.70;;;;;;;3.76;100.00;100114.41;6107666;23;20036;-74
2023/03/06 09:36:13;;;;;;;12.90;9.43;;;;;;;3.59;100.00;100112.41;6079775;23;20018;-77
2023/03/06 09:38:39;;;;;;;9.18;6.40;;;;;;;3.54;100.00;100102.16;6111167;23;20044;-74
2023/03/06 09:41:18;;;;;;;11.10;6.43;;;;;;;3.74;100.00;100114.47;6077102;23;20036;-75
2023/03/06 09:43:48;;;;;;;16.00;7.90;;;;;;;3.85;100.00;100119.31;6110314;23;20432;-72
2023/03/06 09:46:31;;;;;;;13.43;8.70;;;;;;;3.79;100.00;100106.53;6080937;23;20421;-72
2023/03/06 09:49:09;;;;;;;6.85;6.18;;;;;;;3.89;100.00;100107.94;6085905;23;20014;-75
2023/03/06 09:51:50;;;;;;;12.05;7.85;;;;;;;3.64;100.00;100037.00;6104552;23;20046;-74
2023/03/06 09:54:24;;;;;;;11.50;8.13;;;;;;;3.62;100.00;100088.09;6107824;23;20022;-74
2023/03/06 09:56:51;;;;;;;9.40;6.25;;;;;;;3.87;100.00;100088.97;6082099;23;20621;-73
2023/03/06 09:59:23;;;;;;;16.23;7.05;;;;;;;3.84;100.00;100083.84;6077521;23;20491;-77
2023/03/06 10:02:00;;;;;;;12.02;8.82;;;;;;;2.82;100.00;99891.91;6087164;23;20100;-73
2023/03/06 10:04:35;;;;;;;8.15;6.57;;;;;;;4.08;100.00;100083.91;6085279;23;20042;-74
2023/03/06 10:07:11;;;;;;;8.43;7.35;;;;;;;4.07;100.00;100079.59;6080893;23;20025;-74
2023/03/06 10:09:46;;;;;;;13.20;6.35;;;;;;;4.02;100.00;100082.38;6079598;23;20030;-75
2023/03/06 10:12:27;;;;;;;15.05;8.98;;;;;;;4.05;100.00;100076.22;6108560;23;20021;-74
2023/03/06 10:15:07;;;;;;;5.82;5.28;;;;;;;3.90;100.00;100077.63;6053702;23;20034;-74
2023/03/06 10:17:36;;;;;;;8.02;6.38;;;;;;;3.22;100.00;100011.59;6110556;23;20092;-74
2023/03/06 10:20:22;;;;;;;6.90;5.53;;;;;;;3.32;100.00;100073.47;6105703;23;20021;-75
2023/03/06 10:23:12;;;;;;;4.80;4.50;;;;;;;3.06;100.00;100037.16;6084949;23;20124;-74
2023/03/06 10:25:58;;;;;;;6.07;5.10;;;;;;;2.90;100.00;100052.34;6105906;23;20039;-72
2023/03/06 10:28:32;;;;;;;5.88;5.47;;;;;;;3.13;100.00;100104.34;6107095;23;20006;-73
2023/03/06 10:31:18;;;;;;;6.95;5.03;;;;;;;2.85;100.00;100072.38;6105347;23;20518;-75
2023/03/06 10:34:00;;;;;;;7.93;6.18;;;;;;;3.10;100.00;100137.28;6078571;23;20109;-75
2023/03/06 10:36:27;;;;;;;5.78;5.20;;;;;;;2.12;100.00;99996.78;6110092;23;20480;-74
2023/03/06 10:38:57;;;;;;;7.80;6.30;;;;;;;2.81;100.00;100100.13;6085014;23;20479;-72
2023/03/06 10:41:25;;;;;;;6.47;5.22;;;;;;;2.50;100.00;100053.53;6109352;23;20009;-72
2023/03/06 10:44:04;;;;;;;6.70;6.10;;;;;;;3.02;100.00;100147.03;6082319;23;20097;-72
2023/03/06 10:46:34;;;;;;;8.13;5.75;;;;;;;3.03;100.00;100149.59;6111448;23;20749;-72
2023/03/06 10:49:05;;;;;;;6.55;4.88;;;;;;;2.71;100.00;100096.97;6065104;23;20414;-72
2023/03/06 10:51:33;;;;;;;5.95;5.35;;;;;;;3.09;100.00;100153.75;6122580;23;20028;-71
2023/03/06 10:54:02;;;;;;;11.88;6.43;;;;;;;3.22;100.00;100165.41;6077511;23;20049;-74
2023/03/06 10:56:33;;;;;;;9.43;6.07;;;;;;;3.51;100.00;100166.28;6108143;23;20256;-72
2023/03/06 10:59:09;;;;;;;6.13;5.50;;;;;;;3.55;100.00;100122.03;6107281;23;20463;-72
2023/03/06 11:01:36;;;;;;;7.40;6.05;;;;;;;3.64;100.00;100140.78;6056028;23;20018;-72
2023/03/06 11:04:22;;;;;;;10.18;5.75;;;;;;;3.70;100.00;100135.38;6082366;23;20069;-74
2023/03/06 11:07:11;;;;;;;7.05;6.25;;;;;;;3.48;100.00;100155.97;6092837;23;20017;-71
2023/03/06 11:09:38;;;;;;;6.10;5.70;;;;;;;2.89;100.00;100090.38;6082299;23;20057;-76
2023/03/06 11:12:31;;;;;;;7.07;5.25;;;;;;;3.42;100.00;100144.06;6106863;23;20029;-71
2023/03/06 11:15:13;;;;;;;13.63;4.57;;;;;;;3.88;100.00;100168.50;6102564;23;20596;-71
2023/03/06 11:18:00;;;;;;;8.32;5.43;;;;;;;4.03;100.00;100153.31;6080588;23;20500;-71
2023/03/06 11:20:39;;;;;;;6.65;4.95;;;;;;;4.12;100.00;100158.22;6081615;23;20046;-72
2023/03/06 11:23:26;;;;;;;9.80;5.80;;;;;;;3.88;100.00;100103.63;6081164;23;20263;-72
2023/03/06 11:26:01;;;;;;;6.70;6.03;;;;;;;4.36;100.00;100136.56;6077376;23;20061;-74
2023/03/06 11:28:33;;;;;;;5.95;5.55;;;;;;;3.87;100.00;100050.03;6109405;23;20026;-73
2023/03/06 11:31:15;;;;;;;8.05;6.80;;;;;;;4.28;100.00;100109.19;6108676;23;20029;-73